Disclaimer

Please do not use the information listed here in-flight or in-navigation, as they are not provided to us by the airports but are provided by volunteers, so they might be outdated.

Search


Regions


Airport information page

Radio informations:
Tower (TWR) - 119.2 MHz
Automatic Terminal Information Service (ATIS) - 113.95 MHz
Approach (APP) - 119.2 MHz

Airport informations:
Latitude: 57° 28' 52.00" N
Longitude: 007° 21' 46.00" W
Elevation: 19 feet - 6 meters
Operating hours: Remarks
Operating agency: Civil government, landing fees and diplomatic clearance may be required
Timezone: UTC 0(+1DT) - Last Sunday in March to last Sunday in October
Fuel: Jet A1+, Jet A1 with icing inhibitor.

Runway information:
06/24 - 6024 x 151 feet< - >1836 x 46 meters
17/35 - 4003 x 151 feet< - >1220 x 46 meters

Recent METARs:
EGPL 192020Z AUTO 11005KT 9999 OVC036/// 07/04 Q1028
EGPL 192050Z AUTO 10005KT 9999 BKN038/// 07/04 Q1028
EGPL 192120Z AUTO 10004KT 9999 OVC038/// 07/04 Q1028

Airport on the map: